Time;durP1;ratioP1;P1;durP2;ratioP2;P2;SDS_P1;SDS_P2;PMS_P1;PMS_P2;Temp;Humidity;BMP_temperature;BMP_pressure;BME280_temperature;BME280_humidity;BME280_pressure;Samples;Min_cycle;Max_cycle;Signal;HPM_P1;HPM_P2
2023/02/21 02:23:05;;;;;;;3.60;3.30;;;;;;;;;;1151;1282;576385487;-65
2023/02/21 02:32:11;;;;;;;3.60;3.30;;;;;;;;;;1136;1283;540365946;-64
2023/02/21 02:41:52;;;;;;;3.60;3.30;;;;;;;;;;1220;1285;576375551;-65
2023/02/21 02:49:18;;;;;;;3.60;3.30;;;;;;;;;;1446;1285;441283735;-65
2023/02/21 02:55:51;;;;;;;3.60;3.30;;;;;;;;;;976;1285;387257864;-65
2023/02/21 03:05:32;;;;;;;3.60;3.30;;;;;;;;;;1234;1280;576383817;-65
2023/02/21 03:14:38;;;;;;;3.60;3.30;;;;;;;;;;739;1285;540360570;-65
2023/02/21 03:24:29;;;;;;;3.60;3.30;;;;;;;;;;2;585389626;585389626;-67
2023/02/21 03:31:55;;;;;;;3.60;3.30;;;;;;;;;;949;1285;441294009;-65
2023/02/21 03:38:28;;;;;;;3.60;3.30;;;;;;;;;;871;1286;387262217;-63
2023/02/21 03:48:09;;;;;;;3.60;3.30;;;;;;;;;;1031;1285;576375013;-63
2023/02/21 03:57:16;;;;;;;3.60;3.30;;;;;;;;;;2;540351148;540351148;-63
2023/02/21 04:07:06;;;;;;;3.60;3.30;;;;;;;;;;2;585379364;585379364;-66
2023/02/21 04:14:36;;;;;;;3.60;3.30;;;;;;;;;;2;441288254;441288254;-66
2023/02/21 04:21:09;;;;;;;3.60;3.30;;;;;;;;;;1334;1278;387260794;-65
2023/02/21 04:30:50;;;;;;;3.60;3.30;;;;;;;;;;900;1279;576379804;-66
2023/02/21 04:39:56;;;;;;;3.60;3.30;;;;;;;;;;80;1282;540352630;-66
2023/02/21 04:49:50;;;;;;;3.60;3.30;;;;;;;;;;863;1281;585377161;-63
2023/02/21 04:57:15;;;;;;;3.60;3.30;;;;;;;;;;2;441288536;441288536;-64
2023/02/21 05:03:47;;;;;;;3.60;3.30;;;;;;;;;;882;1277;387261857;-64
2023/02/21 05:13:28;;;;;;;3.60;3.30;;;;;;;;;;544;1281;576379417;-63
2023/02/21 05:22:37;;;;;;;3.60;3.30;;;;;;;;;;2;540367440;540367440;-64
2023/02/21 05:32:28;;;;;;;3.60;3.30;;;;;;;;;;2;585382082;585382082;-68
2023/02/21 05:39:52;;;;;;;3.60;3.30;;;;;;;;;;2;441308379;441308379;-64
2023/02/21 05:46:25;;;;;;;3.60;3.30;;;;;;;;;;1305;1281;387251415;-65
2023/02/21 05:56:06;;;;;;;3.60;3.30;;;;;;;;;;1385;1280;576376762;-63
2023/02/21 06:05:12;;;;;;;3.60;3.30;;;;;;;;;;2;540352956;540352956;-65
2023/02/21 06:15:06;;;;;;;3.60;3.30;;;;;;;;;;1398;1281;585390686;-64
2023/02/21 06:22:31;;;;;;;3.60;3.30;;;;;;;;;;2;441286668;441286668;-66
2023/02/21 06:29:03;;;;;;;3.60;3.30;;;;;;;;;;1294;1279;387257734;-68
2023/02/21 06:38:45;;;;;;;3.60;3.30;;;;;;;;;;1109;1281;576390208;-64
2023/02/21 06:47:50;;;;;;;3.60;3.30;;;;;;;;;;1023;1279;540372960;-67
2023/02/21 06:57:40;;;;;;;3.60;3.30;;;;;;;;;;1341;1280;585394778;-67
2023/02/21 07:05:06;;;;;;;3.60;3.30;;;;;;;;;;1378;1280;441301886;-66
2023/02/21 07:11:39;;;;;;;3.60;3.30;;;;;;;;;;1075;1281;387276793;-67
2023/02/21 07:21:20;;;;;;;3.60;3.30;;;;;;;;;;1192;1273;576393437;-67
2023/02/21 07:30:26;;;;;;;3.60;3.30;;;;;;;;;;943;1280;540353464;-65
2023/02/21 07:40:16;;;;;;;3.60;3.30;;;;;;;;;;1181;1281;585405798;-63
2023/02/21 07:47:42;;;;;;;3.60;3.30;;;;;;;;;;1023;1279;441302436;-64
2023/02/21 07:54:16;;;;;;;3.60;3.30;;;;;;;;;;2;387254024;387254024;-65
2023/02/21 08:03:57;;;;;;;3.60;3.30;;;;;;;;;;1207;1281;576384320;-64
2023/02/21 08:13:04;;;;;;;3.60;3.30;;;;;;;;;;2;540374480;540374480;-64
2023/02/21 08:22:55;;;;;;;3.60;3.30;;;;;;;;;;1284;1280;585399503;-64
2023/02/21 08:30:21;;;;;;;3.60;3.30;;;;;;;;;;1384;1267;441311334;-62
2023/02/21 08:36:53;;;;;;;3.60;3.30;;;;;;;;;;1153;1279;387275143;-72
2023/02/21 08:46:35;;;;;;;3.60;3.30;;;;;;;;;;1274;1280;576395476;-71
2023/02/21 08:55:41;;;;;;;3.60;3.30;;;;;;;;;;948;1279;540365477;-66
2023/02/21 09:05:30;;;;;;;3.60;3.30;;;;;;;;;;283;1282;585402778;-71
2023/02/21 09:12:57;;;;;;;3.60;3.30;;;;;;;;;;1050;1281;441300463;-70
2023/02/21 09:19:29;;;;;;;3.60;3.30;;;;;;;;;;1124;1279;387257453;-71
2023/02/21 09:29:11;;;;;;;3.60;3.30;;;;;;;;;;1369;1279;576379543;-73
2023/02/21 09:38:16;;;;;;;3.60;3.30;;;;;;;;;;1062;1279;540367922;-73
2023/02/21 09:48:06;;;;;;;3.60;3.30;;;;;;;;;;1324;1277;585408169;-70
2023/02/21 09:55:32;;;;;;;3.60;3.30;;;;;;;;;;1102;1282;441292945;-69
2023/02/21 10:02:05;;;;;;;3.60;3.30;;;;;;;;;;1410;1277;387255495;-70
2023/02/21 10:11:47;;;;;;;3.60;3.30;;;;;;;;;;1410;1281;576380511;-68
2023/02/21 10:20:52;;;;;;;3.60;3.30;;;;;;;;;;365;1282;540363798;-65
2023/02/21 10:30:42;;;;;;;3.60;3.30;;;;;;;;;;1228;1270;585400006;-67
2023/02/21 10:35:48;;;;;;;3.60;3.30;;;;;;;;;;910;1278;300944387;-71
2023/02/21 10:42:21;;;;;;;3.60;3.30;;;;;;;;;;1304;1281;387257931;-68
2023/02/21 10:52:02;;;;;;;3.60;3.30;;;;;;;;;;483;1276;576388532;-68
2023/02/21 11:01:07;;;;;;;3.60;3.30;;;;;;;;;;1412;1276;540374720;-69
2023/02/21 11:10:57;;;;;;;3.60;3.30;;;;;;;;;;313;1277;585383384;-69
2023/02/21 11:18:24;;;;;;;3.60;3.30;;;;;;;;;;1336;1277;441318885;-69
2023/02/21 11:24:56;;;;;;;3.60;3.30;;;;;;;;;;553;1276;387286773;-68
2023/02/21 11:34:43;;;;;;;3.60;3.30;;;;;;;;;;1303;1277;576406623;-66
2023/02/21 11:43:47;;;;;;;3.60;3.30;;;;;;;;;;2;540370530;540370530;-65
2023/02/21 11:53:40;;;;;;;3.60;3.30;;;;;;;;;;2;585376939;585376939;-65
2023/02/21 12:01:06;;;;;;;3.60;3.30;;;;;;;;;;1074;1279;441299777;-67
2023/02/21 12:07:39;;;;;;;3.60;3.30;;;;;;;;;;903;1282;387255625;-67
2023/02/21 12:17:20;;;;;;;3.60;3.30;;;;;;;;;;1340;1279;576404304;-66
2023/02/21 12:21:36;;;;;;;3.60;3.30;;;;;;;;;;1273;1279;250562994;-68
2023/02/21 12:29:15;;;;;;;3.60;3.30;;;;;;;;;;43897;1270;387272925;-65
2023/02/21 12:38:59;;;;;;;3.60;3.30;;;;;;;;;;605;1279;576382327;-68
2023/02/21 12:48:03;;;;;;;3.60;3.30;;;;;;;;;;2;540374574;540374574;-67
2023/02/21 12:57:53;;;;;;;3.60;3.30;;;;;;;;;;1345;1279;585385560;-66
2023/02/21 13:05:19;;;;;;;3.60;3.30;;;;;;;;;;1322;1270;441302678;-66
2023/02/21 13:11:52;;;;;;;3.60;3.30;;;;;;;;;;162;1279;387266855;-66
2023/02/21 13:21:33;;;;;;;3.60;3.30;;;;;;;;;;1457;1277;576402731;-69
2023/02/21 13:30:39;;;;;;;3.60;3.30;;;;;;;;;;1372;1276;540393125;-67
2023/02/21 13:48:12;;;;;;;2.10;1.50;;;;;;;;;;2;432219849;432219849;-63
2023/02/21 13:57:17;;;;;;;2.10;1.50;;;;;;;;;;2360;1285;540595112;-68
2023/02/21 14:06:59;;;;;;;2.10;1.50;;;;;;;;;;1881;1286;576396779;-63
2023/02/21 14:14:25;;;;;;;2.10;1.50;;;;;;;;;;2226;1285;441295486;-63
2023/02/21 14:20:57;;;;;;;2.10;1.50;;;;;;;;;;2;385751117;385751117;-64
2023/02/21 14:30:38;;;;;;;2.10;1.50;;;;;;;;;;2232;1276;576392632;-63
2023/02/21 14:39:43;;;;;;;2.10;1.50;;;;;;;;;;2020;1286;539693123;-69
2023/02/21 14:45:13;;;;;;;2.10;1.50;;;;;;;;;;2319;1285;324138054;-66
2023/02/21 14:47:59;;;;;;;2.10;0.70;;;;;;;;;;104749;1260;61701;-67
2023/02/21 14:50:45;;;;;;;1.30;0.90;;;;;;;;;;104859;1263;62050;-64
2023/02/21 14:53:21;;;;;;;1.20;1.00;;;;;;;;;;104397;1263;62124;-64
2023/02/21 14:56:06;;;;;;;8.10;3.80;;;;;;;;;;104417;1261;62576;-64
2023/02/21 14:58:56;;;;;;;6.30;3.80;;;;;;;;;;104384;1263;62308;-64
2023/02/21 15:01:24;;;;;;;3.70;2.60;;;;;;;;;;104538;1260;62033;-64
2023/02/21 15:04:11;;;;;;;2.70;2.00;;;;;;;;;;104462;1269;62066;-64
2023/02/21 15:06:39;;;;;;;2.70;1.40;;;;;;;;;;104604;1260;61727;-70
2023/02/21 15:09:13;;;;;;;2.20;1.00;;;;;;;;;;104907;1260;62994;-65
2023/02/21 15:11:39;;;;;;;2.00;1.10;;;;;;;;;;104819;1263;62030;-65
2023/02/21 15:14:10;;;;;;;1.30;1.00;;;;;;;;;;105065;1257;61928;-64
2023/02/21 15:16:37;;;;;;;2.00;1.30;;;;;;;;;;105113;1254;61980;-64
2023/02/21 15:19:04;;;;;;;;;;;;;;;;;;105402;1253;61922;-63
2023/02/21 15:21:33;;;;;;;1.10;0.90;;;;;;;;;;104971;1255;62034;-63
2023/02/21 15:24:00;;;;;;;1.20;1.00;;;;;;;;;;104638;1256;62092;-62
2023/02/21 15:26:28;;;;;;;;;;;;;;;;;;105638;1260;61881;-63
2023/02/21 15:29:06;;;;;;;2.80;0.80;;;;;;;;;;105209;1260;61366;-63
2023/02/21 15:31:57;;;;;;;2.10;1.00;;;;;;;;;;105586;1250;62327;-62
2023/02/21 15:34:38;;;;;;;1.60;1.00;;;;;;;;;;105315;1250;61988;-66
2023/02/21 15:37:18;;;;;;;2.70;1.50;;;;;;;;;;105056;1253;62002;-66
2023/02/21 15:39:52;;;;;;;2.30;1.30;;;;;;;;;;105271;1250;62320;-66
2023/02/21 15:42:22;;;;;;;2.30;1.20;;;;;;;;;;105491;1252;61899;-68
2023/02/21 15:44:50;;;;;;;2.40;1.50;;;;;;;;;;105511;1250;62005;-67
2023/02/21 15:47:18;;;;;;;2.10;1.40;;;;;;;;;;105454;1250;61332;-69
2023/02/21 15:49:55;;;;;;;1.10;1.00;;;;;;;;;;105406;1253;62270;-66
2023/02/21 15:52:36;;;;;;;1.60;1.00;;;;;;;;;;105418;1253;62028;-63
2023/02/21 15:55:18;;;;;;;2.50;1.40;;;;;;;;;;105429;1251;62798;-64
2023/02/21 15:57:45;;;;;;;2.30;1.50;;;;;;;;;;105226;1253;62972;-68
2023/02/21 16:00:27;;;;;;;3.00;1.70;;;;;;;;;;105497;1253;62981;-67
2023/02/21 16:03:13;;;;;;;2.70;1.40;;;;;;;;;;105170;1252;63157;-70
2023/02/21 16:05:41;;;;;;;3.80;1.40;;;;;;;;;;105465;1253;63122;-71
2023/02/21 16:08:10;;;;;;;3.30;1.30;;;;;;;;;;105186;1250;63067;-72
2023/02/21 16:10:40;;;;;;;2.20;1.10;;;;;;;;;;105060;1249;63819;-70
2023/02/21 16:13:06;;;;;;;3.30;1.80;;;;;;;;;;105222;1265;64482;-72
2023/02/21 16:15:37;;;;;;;2.50;1.40;;;;;;;;;;105218;1253;65065;-71
2023/02/21 16:18:06;;;;;;;3.30;1.50;;;;;;;;;;105378;1253;66136;-69
2023/02/21 16:20:40;;;;;;;2.60;1.50;;;;;;;;;;108678;1250;70236;-72
2023/02/21 16:23:27;;;;;;;2.50;1.40;;;;;;;;;;105756;1254;66511;-69
2023/02/21 16:25:54;;;;;;;3.00;1.70;;;;;;;;;;105707;1253;65946;-73
2023/02/21 16:28:21;;;;;;;3.40;1.90;;;;;;;;;;105493;1250;66849;-71
2023/02/21 16:30:47;;;;;;;1.70;1.10;;;;;;;;;;105320;1251;67218;-70
2023/02/21 16:33:15;;;;;;;1.40;1.10;;;;;;;;;;105243;1253;70135;-70
2023/02/21 16:35:42;;;;;;;0.90;0.80;;;;;;;;;;105364;1250;66760;-69
2023/02/21 16:38:12;;;;;;;1.80;1.00;;;;;;;;;;104996;1253;69221;-68
2023/02/21 16:40:39;;;;;;;3.00;1.50;;;;;;;;;;105058;1249;69940;-69
2023/02/21 16:43:06;;;;;;;2.00;1.40;;;;;;;;;;105240;1253;66549;-68
2023/02/21 16:45:33;;;;;;;2.50;1.40;;;;;;;;;;105307;1254;65057;-68
2023/02/21 16:48:04;;;;;;;2.70;1.30;;;;;;;;;;105305;1253;65291;-70
2023/02/21 16:50:32;;;;;;;2.20;1.50;;;;;;;;;;105295;1253;64550;-73
2023/02/21 16:52:59;;;;;;;2.90;1.30;;;;;;;;;;105392;1250;65183;-70
2023/02/21 16:55:26;;;;;;;2.20;1.40;;;;;;;;;;105324;1248;64623;-74
2023/02/21 16:57:55;;;;;;;1.80;1.30;;;;;;;;;;105305;1253;65310;-70
2023/02/21 17:00:21;;;;;;;2.30;1.40;;;;;;;;;;105131;1254;67432;-69
2023/02/21 17:02:49;;;;;;;1.50;1.30;;;;;;;;;;105299;1252;68443;-70
2023/02/21 17:05:16;;;;;;;1.40;1.10;;;;;;;;;;105104;1250;91310;-69
2023/02/21 17:07:44;;;;;;;2.30;0.90;;;;;;;;;;105084;1260;79908;-73
2023/02/21 17:10:11;;;;;;;1.40;0.90;;;;;;;;;;105048;1259;85924;-69
2023/02/21 17:12:38;;;;;;;2.10;1.50;;;;;;;;;;105113;1252;111062;-68
2023/02/21 17:15:05;;;;;;;2.90;1.40;;;;;;;;;;105161;1253;75828;-67
2023/02/21 17:17:34;;;;;;;2.40;1.60;;;;;;;;;;105118;1263;73637;-67
2023/02/21 17:20:01;;;;;;;2.80;1.40;;;;;;;;;;108153;1247;142596;-68
2023/02/21 17:22:28;;;;;;;2.20;1.50;;;;;;;;;;106484;1248;172029;-69
2023/02/21 17:24:55;;;;;;;1.90;1.30;;;;;;;;;;105188;1263;87952;-70
2023/02/21 17:27:23;;;;;;;2.20;1.60;;;;;;;;;;105389;1252;92010;-70
2023/02/21 17:29:50;;;;;;;2.20;1.30;;;;;;;;;;105663;1250;83547;-70
2023/02/21 17:32:17;;;;;;;1.80;1.30;;;;;;;;;;105365;1252;82897;-69
2023/02/21 17:34:44;;;;;;;1.40;1.30;;;;;;;;;;105199;1251;81095;-69
2023/02/21 17:37:11;;;;;;;0.90;0.90;;;;;;;;;;105103;1253;75723;-69
2023/02/21 17:39:39;;;;;;;2.60;1.30;;;;;;;;;;105062;1253;68690;-68
2023/02/21 17:42:06;;;;;;;1.70;0.80;;;;;;;;;;105426;1247;65176;-68
2023/02/21 17:44:33;;;;;;;1.20;0.80;;;;;;;;;;105198;1253;67095;-69
2023/02/21 17:47:00;;;;;;;0.90;0.80;;;;;;;;;;105228;1253;67389;-68
2023/02/21 17:49:28;;;;;;;1.50;0.90;;;;;;;;;;105197;1247;65512;-69
2023/02/21 17:51:54;;;;;;;1.30;0.80;;;;;;;;;;105159;1259;65388;-69
2023/02/21 17:54:22;;;;;;;1.40;0.90;;;;;;;;;;105263;1247;64933;-68
2023/02/21 17:56:49;;;;;;;2.50;0.90;;;;;;;;;;105201;1254;64514;-67
2023/02/21 17:59:16;;;;;;;1.00;0.80;;;;;;;;;;105219;1249;64791;-67
2023/02/21 18:01:44;;;;;;;1.10;0.80;;;;;;;;;;105212;1252;65688;-69
2023/02/21 18:04:12;;;;;;;1.50;0.80;;;;;;;;;;105342;1248;70088;-68
2023/02/21 18:06:39;;;;;;;;;;;;;;;;;;105246;1253;68948;-69
2023/02/21 18:09:06;;;;;;;1.20;1.00;;;;;;;;;;105216;1255;69873;-69
2023/02/21 18:11:38;;;;;;;1.10;0.90;;;;;;;;;;105267;1251;70485;-70
2023/02/21 18:14:05;;;;;;;2.10;1.20;;;;;;;;;;105167;1252;70794;-70
2023/02/21 18:16:33;;;;;;;1.80;1.00;;;;;;;;;;105220;1253;73122;-68
2023/02/21 18:19:01;;;;;;;1.40;1.00;;;;;;;;;;105166;1253;74867;-68
2023/02/21 18:21:28;;;;;;;2.30;1.40;;;;;;;;;;105288;1268;110348;-70
2023/02/21 18:23:55;;;;;;;1.50;1.40;;;;;;;;;;105890;1251;164256;-70
2023/02/21 18:26:21;;;;;;;3.90;1.40;;;;;;;;;;105189;1253;68289;-69
2023/02/21 18:28:48;;;;;;;2.60;1.70;;;;;;;;;;105568;1253;71060;-68
2023/02/21 18:31:16;;;;;;;2.80;1.50;;;;;;;;;;105138;1261;67755;-69
2023/02/21 18:33:43;;;;;;;2.50;1.60;;;;;;;;;;105080;1247;66216;-66
2023/02/21 18:36:10;;;;;;;3.90;2.10;;;;;;;;;;105058;1253;67035;-67
2023/02/21 18:38:38;;;;;;;3.60;2.30;;;;;;;;;;105485;1249;69086;-70
2023/02/21 18:41:05;;;;;;;;;;;;;;;;;;105364;1248;66562;-69
2023/02/21 18:43:32;;;;;;;2.60;1.60;;;;;;;;;;105297;1257;67269;-78
2023/02/21 18:45:59;;;;;;;4.20;1.90;;;;;;;;;;105432;1252;67601;-76
2023/02/21 18:48:26;;;;;;;3.80;2.20;;;;;;;;;;105436;1252;70934;-78
2023/02/21 18:50:53;;;;;;;4.20;2.30;;;;;;;;;;105554;1252;71516;-74
2023/02/21 18:53:21;;;;;;;3.30;2.00;;;;;;;;;;105217;1253;70986;-72
2023/02/21 18:55:47;;;;;;;;;;;;;;;;;;105322;1263;70255;-75
2023/02/21 18:58:14;;;;;;;2.70;1.60;;;;;;;;;;105118;1254;72325;-64
2023/02/21 19:00:41;;;;;;;3.10;1.70;;;;;;;;;;105248;1261;75117;-76
2023/02/21 19:03:09;;;;;;;2.60;1.80;;;;;;;;;;105087;1253;72188;-76
2023/02/21 19:05:36;;;;;;;2.80;1.70;;;;;;;;;;105270;1252;75490;-71
2023/02/21 19:08:03;;;;;;;3.80;1.70;;;;;;;;;;105637;1250;67412;-75
2023/02/21 19:10:31;;;;;;;1.60;1.30;;;;;;;;;;105481;1252;65108;-77
2023/02/21 19:12:58;;;;;;;2.40;1.60;;;;;;;;;;105310;1253;65960;-75
2023/02/21 19:15:25;;;;;;;1.80;1.40;;;;;;;;;;105405;1250;66966;-76
2023/02/21 19:17:52;;;;;;;1.90;1.20;;;;;;;;;;105270;1254;66699;-70
2023/02/21 19:20:19;;;;;;;3.00;1.50;;;;;;;;;;105385;1251;66541;-69
2023/02/21 19:22:46;;;;;;;3.90;1.80;;;;;;;;;;105181;1263;67007;-65
2023/02/21 19:25:14;;;;;;;2.60;1.60;;;;;;;;;;105225;1253;66693;-67
2023/02/21 19:27:42;;;;;;;1.90;1.30;;;;;;;;;;105193;1248;67093;-65
2023/02/21 19:30:12;;;;;;;1.50;1.20;;;;;;;;;;105126;1253;70157;-64
2023/02/21 19:32:39;;;;;;;2.20;1.60;;;;;;;;;;105192;1249;68981;-63
2023/02/21 19:35:07;;;;;;;1.10;1.00;;;;;;;;;;105048;1249;68844;-65
2023/02/21 19:37:34;;;;;;;2.10;1.20;;;;;;;;;;105262;1247;69726;-64
2023/02/21 19:40:04;;;;;;;;;;;;;;;;;;105312;1252;68939;-65
2023/02/21 19:42:33;;;;;;;1.50;1.40;;;;;;;;;;105133;1259;68654;-63
2023/02/21 19:45:00;;;;;;;;;;;;;;;;;;105264;1253;66177;-63
2023/02/21 19:47:27;;;;;;;1.30;0.90;;;;;;;;;;105255;1253;62751;-62
2023/02/21 19:49:56;;;;;;;1.20;1.00;;;;;;;;;;105240;1247;62831;-63
2023/02/21 19:52:23;;;;;;;2.20;1.20;;;;;;;;;;105204;1250;63451;-63
2023/02/21 19:54:50;;;;;;;2.80;1.00;;;;;;;;;;105088;1253;62843;-63
2023/02/21 19:57:17;;;;;;;1.10;1.00;;;;;;;;;;105254;1249;62820;-63
2023/02/21 19:59:44;;;;;;;1.10;0.90;;;;;;;;;;105224;1268;62725;-64
2023/02/21 20:02:11;;;;;;;2.10;1.30;;;;;;;;;;105523;1248;62825;-62
2023/02/21 20:04:38;;;;;;;1.30;1.10;;;;;;;;;;105339;1251;62831;-63
2023/02/21 20:07:05;;;;;;;2.30;1.40;;;;;;;;;;105207;1253;62850;-64
2023/02/21 20:09:35;;;;;;;1.80;1.40;;;;;;;;;;105269;1252;63033;-66
2023/02/21 20:12:08;;;;;;;2.50;0.90;;;;;;;;;;105322;1248;62818;-64
2023/02/21 20:14:35;;;;;;;1.80;1.10;;;;;;;;;;105263;1252;62795;-63
2023/02/21 20:17:02;;;;;;;1.60;1.10;;;;;;;;;;105227;1263;62114;-63
2023/02/21 20:19:30;;;;;;;1.20;0.90;;;;;;;;;;105262;1263;62764;-62
2023/02/21 20:21:57;;;;;;;1.40;1.10;;;;;;;;;;105175;1249;64187;-62
2023/02/21 20:24:23;;;;;;;3.00;1.10;;;;;;;;;;105427;1253;62831;-64
2023/02/21 20:26:51;;;;;;;2.00;1.20;;;;;;;;;;105456;1247;62719;-64
2023/02/21 20:29:18;;;;;;;3.30;1.10;;;;;;;;;;105326;1264;62127;-62
2023/02/21 20:31:45;;;;;;;1.20;0.90;;;;;;;;;;105378;1264;62863;-63
2023/02/21 20:34:12;;;;;;;1.50;1.10;;;;;;;;;;105268;1251;62802;-63
2023/02/21 20:36:40;;;;;;;;;;;;;;;;;;105210;1253;62731;-63
2023/02/21 20:39:18;;;;;;;0.90;0.60;;;;;;;;;;105218;1260;62268;-65
2023/02/21 20:41:45;;;;;;;1.40;1.30;;;;;;;;;;105358;1248;62828;-64
2023/02/21 20:44:13;;;;;;;1.00;0.80;;;;;;;;;;105333;1264;62824;-65
2023/02/21 20:46:40;;;;;;;1.30;0.90;;;;;;;;;;105260;1253;62693;-66
2023/02/21 20:49:06;;;;;;;1.50;1.10;;;;;;;;;;105230;1248;62872;-65
2023/02/21 20:51:35;;;;;;;1.90;1.20;;;;;;;;;;105197;1252;62824;-65
2023/02/21 20:54:03;;;;;;;1.30;1.10;;;;;;;;;;105272;1262;62827;-65
2023/02/21 20:56:33;;;;;;;1.20;1.00;;;;;;;;;;105189;1271;62839;-64
2023/02/21 20:59:00;;;;;;;1.60;1.10;;;;;;;;;;105278;1253;62936;-64
2023/02/21 21:01:27;;;;;;;0.90;0.90;;;;;;;;;;105232;1264;62821;-65
2023/02/21 21:03:55;;;;;;;1.70;1.30;;;;;;;;;;105308;1247;62830;-66
2023/02/21 21:06:22;;;;;;;;;;;;;;;;;;105143;1267;62180;-66
2023/02/21 21:08:49;;;;;;;1.20;1.00;;;;;;;;;;105273;1248;63042;-65
2023/02/21 21:11:16;;;;;;;0.90;0.80;;;;;;;;;;105398;1248;62744;-65
2023/02/21 21:13:46;;;;;;;1.00;0.90;;;;;;;;;;105174;1264;62722;-67
2023/02/21 21:16:14;;;;;;;1.30;0.90;;;;;;;;;;105255;1249;62718;-65
2023/02/21 21:18:41;;;;;;;1.40;0.90;;;;;;;;;;105263;1253;62837;-66
2023/02/21 21:21:09;;;;;;;1.20;1.00;;;;;;;;;;105217;1267;62802;-65
2023/02/21 21:23:36;;;;;;;;;;;;;;;;;;105253;1259;62840;-66
2023/02/21 21:26:07;;;;;;;5.40;0.90;;;;;;;;;;105621;1248;62797;-66
2023/02/21 21:28:34;;;;;;;1.00;0.80;;;;;;;;;;105284;1253;62775;-64
2023/02/21 21:31:04;;;;;;;1.70;1.30;;;;;;;;;;105149;1271;61722;-65
2023/02/21 21:33:32;;;;;;;2.40;0.80;;;;;;;;;;105219;1253;63061;-65
2023/02/21 21:35:59;;;;;;;1.10;0.80;;;;;;;;;;105302;1253;62757;-65
2023/02/21 21:38:27;;;;;;;1.00;0.90;;;;;;;;;;105190;1249;62809;-66
2023/02/21 21:40:55;;;;;;;2.00;1.50;;;;;;;;;;105225;1250;62812;-66
2023/02/21 21:43:23;;;;;;;1.40;0.80;;;;;;;;;;105326;1266;62924;-66
2023/02/21 21:45:50;;;;;;;1.40;0.80;;;;;;;;;;105282;1253;62858;-66
2023/02/21 21:48:17;;;;;;;1.00;0.70;;;;;;;;;;105203;1253;62820;-66
2023/02/21 21:50:44;;;;;;;1.20;0.90;;;;;;;;;;105121;1254;62716;-67
2023/02/21 21:53:11;;;;;;;1.10;0.80;;;;;;;;;;105219;1267;62913;-65
2023/02/21 21:55:38;;;;;;;1.20;1.00;;;;;;;;;;105131;1254;62766;-65
2023/02/21 21:58:09;;;;;;;0.80;0.70;;;;;;;;;;105418;1253;62843;-71
2023/02/21 22:00:45;;;;;;;1.70;1.20;;;;;;;;;;105219;1257;62889;-66
2023/02/21 22:03:17;;;;;;;1.50;1.20;;;;;;;;;;105248;1249;62792;-66
2023/02/21 22:05:44;;;;;;;1.10;1.00;;;;;;;;;;105321;1248;62924;-67
2023/02/21 22:08:15;;;;;;;1.70;1.10;;;;;;;;;;105175;1251;61737;-66
2023/02/21 22:10:43;;;;;;;1.70;1.10;;;;;;;;;;105258;1247;62879;-67
2023/02/21 22:13:14;;;;;;;1.40;0.80;;;;;;;;;;105239;1247;62825;-66
2023/02/21 22:15:43;;;;;;;1.80;0.80;;;;;;;;;;105516;1252;62713;-64
2023/02/21 22:18:11;;;;;;;1.90;1.10;;;;;;;;;;105265;1247;62862;-67
2023/02/21 22:20:38;;;;;;;0.90;0.80;;;;;;;;;;105164;1269;62111;-67
2023/02/21 22:23:05;;;;;;;1.30;1.10;;;;;;;;;;105298;1254;62842;-65
2023/02/21 22:25:35;;;;;;;1.90;1.20;;;;;;;;;;105677;1253;62789;-67
2023/02/21 22:28:08;;;;;;;1.90;1.50;;;;;;;;;;105119;1268;62728;-67
2023/02/21 22:30:36;;;;;;;1.40;1.10;;;;;;;;;;105230;1260;62824;-67
2023/02/21 22:33:04;;;;;;;0.80;0.60;;;;;;;;;;105226;1269;62470;-66
2023/02/21 22:35:31;;;;;;;1.20;0.90;;;;;;;;;;105199;1249;62834;-67
2023/02/21 22:38:03;;;;;;;0.80;0.80;;;;;;;;;;105287;1263;62834;-66
2023/02/21 22:40:34;;;;;;;0.90;0.90;;;;;;;;;;105186;1253;62757;-66
2023/02/21 22:43:04;;;;;;;1.10;0.90;;;;;;;;;;105316;1251;62730;-67
2023/02/21 22:45:34;;;;;;;1.00;0.90;;;;;;;;;;105397;1252;62837;-67
2023/02/21 22:48:02;;;;;;;1.10;1.00;;;;;;;;;;105120;1269;62739;-66
2023/02/21 22:50:35;;;;;;;1.20;1.10;;;;;;;;;;105325;1254;62813;-66
2023/02/21 22:53:06;;;;;;;1.30;1.20;;;;;;;;;;105369;1267;62718;-66
2023/02/21 22:55:35;;;;;;;1.60;1.50;;;;;;;;;;105280;1254;62887;-66
2023/02/21 22:58:04;;;;;;;1.50;1.40;;;;;;;;;;105382;1250;62840;-66
2023/02/21 23:00:34;;;;;;;2.30;1.10;;;;;;;;;;105269;1253;62845;-66
2023/02/21 23:03:01;;;;;;;1.40;1.30;;;;;;;;;;105270;1260;62844;-66
2023/02/21 23:05:33;;;;;;;3.50;1.40;;;;;;;;;;105326;1253;62773;-67
2023/02/21 23:07:59;;;;;;;1.60;1.40;;;;;;;;;;105229;1253;62834;-67
2023/02/21 23:10:26;;;;;;;1.20;1.10;;;;;;;;;;105291;1254;62805;-66
2023/02/21 23:12:54;;;;;;;1.60;1.40;;;;;;;;;;105248;1250;62840;-66
2023/02/21 23:15:21;;;;;;;1.50;1.40;;;;;;;;;;105227;1253;62872;-68
2023/02/21 23:17:52;;;;;;;1.60;1.50;;;;;;;;;;105330;1253;62824;-67
2023/02/21 23:20:21;;;;;;;2.20;1.70;;;;;;;;;;105273;1251;63260;-67
2023/02/21 23:22:47;;;;;;;;;;;;;;;;;;105621;1247;62827;-67
2023/02/21 23:25:22;;;;;;;2.20;2.00;;;;;;;;;;109035;1247;60928;-67
2023/02/21 23:27:50;;;;;;;1.60;1.50;;;;;;;;;;105531;1269;62800;-65
2023/02/21 23:30:17;;;;;;;2.00;1.80;;;;;;;;;;105668;1252;62723;-68
2023/02/21 23:32:45;;;;;;;1.80;1.70;;;;;;;;;;105470;1253;62816;-69
2023/02/21 23:35:14;;;;;;;2.20;2.00;;;;;;;;;;105390;1253;62175;-67
2023/02/21 23:37:42;;;;;;;2.30;2.10;;;;;;;;;;105278;1253;62843;-68
2023/02/21 23:40:15;;;;;;;2.20;2.00;;;;;;;;;;105283;1248;62827;-68
2023/02/21 23:42:43;;;;;;;2.30;2.10;;;;;;;;;;105265;1257;62719;-68
2023/02/21 23:45:11;;;;;;;2.40;2.20;;;;;;;;;;105169;1253;62913;-67
2023/02/21 23:47:40;;;;;;;2.70;2.50;;;;;;;;;;105227;1259;62767;-68
2023/02/21 23:50:15;;;;;;;2.20;2.10;;;;;;;;;;105537;1251;62828;-68
2023/02/21 23:52:45;;;;;;;4.00;2.40;;;;;;;;;;105255;1254;62804;-68
2023/02/21 23:55:13;;;;;;;2.30;2.10;;;;;;;;;;105169;1268;62745;-70
2023/02/21 23:57:41;;;;;;;2.70;2.50;;;;;;;;;;105316;1253;63307;-68
